Time;durP1;ratioP1;P1;durP2;ratioP2;P2;SDS_P1;SDS_P2;PMS_P1;PMS_P2;Temp;Humidity;BMP_temperature;BMP_pressure;BME280_temperature;BME280_humidity;BME280_pressure;Samples;Min_cycle;Max_cycle;Signal;HPM_P1;HPM_P2
2021/05/03 00:00:19;;;;;;;1.48;1.20;;;23.90;27.00;;;;;;5012524;28;20092;-58
2021/05/03 00:02:45;;;;;;;1.17;1.00;;;23.90;27.00;;;;;;5012094;28;20054;-54
2021/05/03 00:05:24;;;;;;;1.13;0.77;;;23.90;27.00;;;;;;5012534;28;20398;-53
2021/05/03 00:07:50;;;;;;;1.40;0.95;;;23.90;27.00;;;;;;5011373;28;20078;-55
2021/05/03 00:10:16;;;;;;;1.20;1.00;;;23.90;27.00;;;;;;5012228;28;20026;-56
2021/05/03 00:12:43;;;;;;;1.10;0.98;;;23.90;27.00;;;;;;5012002;28;20046;-55
2021/05/03 00:15:11;;;;;;;2.05;1.10;;;23.90;27.00;;;;;;5011829;28;20045;-56
2021/05/03 00:17:38;;;;;;;1.33;0.82;;;23.90;27.10;;;;;;5010390;28;20037;-54
2021/05/03 00:20:05;;;;;;;0.75;0.75;;;23.90;27.10;;;;;;5012454;28;20026;-59
2021/05/03 00:22:31;;;;;;;0.93;0.90;;;23.90;27.10;;;;;;5012082;28;20040;-55
2021/05/03 00:24:57;;;;;;;1.48;0.95;;;23.80;27.10;;;;;;5012360;28;20116;-52
2021/05/03 00:27:23;;;;;;;2.13;1.10;;;23.80;27.10;;;;;;5011809;28;20825;-56
2021/05/03 00:29:49;;;;;;;0.90;0.70;;;23.80;27.10;;;;;;5010558;28;20099;-51
2021/05/03 00:32:15;;;;;;;1.67;0.90;;;23.80;27.10;;;;;;5011139;28;20034;-53
2021/05/03 00:34:40;;;;;;;1.45;0.80;;;23.80;27.10;;;;;;5012344;28;20033;-54
2021/05/03 00:37:06;;;;;;;1.65;0.70;;;23.80;27.10;;;;;;5012392;28;20014;-58
2021/05/03 00:39:32;;;;;;;0.80;0.70;;;23.80;27.10;;;;;;5012172;28;20449;-57
2021/05/03 00:41:58;;;;;;;0.70;0.70;;;23.80;27.10;;;;;;5011262;28;20113;-54
2021/05/03 00:44:26;;;;;;;1.65;0.90;;;23.70;27.10;;;;;;5012404;28;20030;-57
2021/05/03 00:46:54;;;;;;;1.60;1.00;;;23.80;27.20;;;;;;5011513;28;20069;-57
2021/05/03 00:49:20;;;;;;;0.98;0.80;;;23.80;27.20;;;;;;5009314;28;20030;-53
2021/05/03 00:51:46;;;;;;;1.25;0.70;;;23.80;27.20;;;;;;5012533;28;20022;-57
2021/05/03 00:54:12;;;;;;;1.45;0.75;;;23.70;27.20;;;;;;5011535;28;20359;-53
2021/05/03 00:56:38;;;;;;;1.23;0.70;;;23.70;27.20;;;;;;5014243;28;20054;-56
2021/05/03 00:59:04;;;;;;;0.82;0.60;;;23.70;27.20;;;;;;5015949;28;20044;-56
2021/05/03 01:01:30;;;;;;;1.20;0.80;;;23.70;27.20;;;;;;5013852;28;20034;-58
2021/05/03 01:03:56;;;;;;;1.05;0.63;;;23.70;27.70;;;;;;5014658;28;20337;-58
2021/05/03 01:06:22;;;;;;;0.88;0.68;;;23.70;27.20;;;;;;5015063;28;20132;-55
2021/05/03 01:08:47;;;;;;;0.90;0.70;;;23.70;27.20;;;;;;5015388;28;20061;-57
2021/05/03 01:11:13;;;;;;;0.82;0.70;;;23.60;27.20;;;;;;5013899;28;20096;-56
2021/05/03 01:13:40;;;;;;;1.13;0.85;;;23.70;27.20;;;;;;5015549;28;20044;-55
2021/05/03 01:16:06;;;;;;;0.93;0.60;;;23.60;27.20;;;;;;5015490;28;20029;-56
2021/05/03 01:18:36;;;;;;;2.05;0.90;;;23.60;27.20;;;;;;5014841;28;20034;-59
2021/05/03 01:21:03;;;;;;;1.27;0.70;;;23.60;27.20;;;;;;5014059;28;20108;-53
2021/05/03 01:23:28;;;;;;;1.10;0.60;;;23.60;27.20;;;;;;5015318;28;20029;-57
2021/05/03 01:25:54;;;;;;;0.50;0.40;;;23.60;27.20;;;;;;5014830;28;20125;-55
2021/05/03 01:28:20;;;;;;;1.20;0.60;;;23.60;27.30;;;;;;5014574;28;20472;-51
2021/05/03 01:30:47;;;;;;;0.68;0.50;;;23.60;27.20;;;;;;5014677;28;20037;-55
2021/05/03 01:33:15;;;;;;;0.68;0.47;;;23.60;27.30;;;;;;5014263;28;20022;-58
2021/05/03 01:35:46;;;;;;;0.52;0.52;;;23.60;27.30;;;;;;5015023;28;20061;-56
2021/05/03 01:38:13;;;;;;;1.27;0.80;;;23.60;27.30;;;;;;5015183;28;20061;-55
2021/05/03 01:40:41;;;;;;;0.82;0.68;;;23.50;27.30;;;;;;5013868;28;20410;-54
2021/05/03 01:43:12;;;;;;;1.63;0.93;;;23.50;27.30;;;;;;5015020;28;20113;-57
2021/05/03 01:45:40;;;;;;;1.00;0.60;;;23.50;27.30;;;;;;5012028;28;20030;-57
2021/05/03 01:48:08;;;;;;;0.47;0.47;;;23.50;27.30;;;;;;5014082;28;20034;-53
2021/05/03 01:50:34;;;;;;;0.82;0.70;;;23.50;27.30;;;;;;5014688;28;20069;-54
2021/05/03 01:53:01;;;;;;;0.90;0.60;;;23.50;27.30;;;;;;5014530;28;20029;-54
2021/05/03 01:55:27;;;;;;;0.80;0.60;;;23.50;27.30;;;;;;5014023;28;20108;-52
2021/05/03 01:57:53;;;;;;;0.82;0.47;;;23.50;27.30;;;;;;5013996;28;20469;-55
2021/05/03 02:00:19;;;;;;;0.50;0.50;;;23.50;27.40;;;;;;5014077;28;20112;-52
2021/05/03 02:02:46;;;;;;;0.85;0.40;;;23.50;27.40;;;;;;5014645;28;20350;-58
2021/05/03 02:05:18;;;;;;;0.70;0.50;;;23.50;27.40;;;;;;5014841;28;20143;-58
2021/05/03 02:07:43;;;;;;;0.55;0.47;;;23.50;27.90;;;;;;5014028;28;20470;-56
2021/05/03 02:10:10;;;;;;;1.02;0.52;;;23.40;27.40;;;;;;5011626;28;20053;-52
2021/05/03 02:12:39;;;;;;;0.82;0.60;;;23.40;27.40;;;;;;5014105;28;20040;-54
2021/05/03 02:15:08;;;;;;;0.52;0.45;;;23.40;27.40;;;;;;5014059;28;20110;-55
2021/05/03 02:17:34;;;;;;;0.80;0.50;;;23.40;27.40;;;;;;5011809;28;20140;-56
2021/05/03 02:20:00;;;;;;;0.52;0.40;;;23.40;27.40;;;;;;5013912;28;20120;-56
2021/05/03 02:22:26;;;;;;;0.57;0.50;;;23.40;27.40;;;;;;5013603;28;20030;-57
2021/05/03 02:24:52;;;;;;;0.50;0.50;;;23.40;27.40;;;;;;5014628;28;20049;-54
2021/05/03 02:27:18;;;;;;;1.17;0.50;;;23.40;27.40;;;;;;5013808;28;20040;-58
2021/05/03 02:29:43;;;;;;;0.43;0.35;;;23.40;27.40;;;;;;5012765;28;20116;-57
2021/05/03 02:32:09;;;;;;;1.10;0.63;;;23.40;27.40;;;;;;5014258;28;20030;-56
2021/05/03 02:34:36;;;;;;;1.27;0.65;;;23.40;27.40;;;;;;5013727;28;20323;-57
2021/05/03 02:37:02;;;;;;;0.75;0.60;;;23.30;27.40;;;;;;5012652;28;20037;-53
2021/05/03 02:39:28;;;;;;;0.47;0.47;;;23.30;27.40;;;;;;5013869;28;20353;-56
2021/05/03 02:41:53;;;;;;;0.57;0.50;;;23.30;27.40;;;;;;5013248;28;20073;-57
2021/05/03 02:44:19;;;;;;;0.73;0.60;;;23.30;27.40;;;;;;5013815;28;20034;-57
2021/05/03 02:46:45;;;;;;;0.47;0.45;;;23.30;27.40;;;;;;5013812;28;20086;-52
2021/05/03 02:49:11;;;;;;;0.98;0.63;;;23.30;27.40;;;;;;5013075;28;20026;-55
2021/05/03 02:51:37;;;;;;;0.30;0.30;;;23.30;27.40;;;;;;5013239;28;20422;-57
2021/05/03 02:54:04;;;;;;;0.57;0.57;;;23.30;27.40;;;;;;5013827;28;20040;-52
2021/05/03 02:56:30;;;;;;;0.70;0.50;;;23.30;27.40;;;;;;5013668;28;20061;-55
2021/05/03 02:58:55;;;;;;;0.90;0.43;;;23.30;27.40;;;;;;5012629;28;20042;-54
2021/05/03 03:01:21;;;;;;;1.00;0.50;;;23.30;27.40;;;;;;5011999;28;20037;-55
2021/05/03 03:03:47;;;;;;;0.80;0.40;;;23.30;27.40;;;;;;5013633;28;20410;-57
2021/05/03 03:06:13;;;;;;;0.52;0.52;;;23.30;27.40;;;;;;5013154;28;20060;-59
2021/05/03 03:08:39;;;;;;;1.48;0.55;;;23.30;27.40;;;;;;5013295;28;20025;-54
2021/05/03 03:11:04;;;;;;;0.68;0.50;;;23.30;27.40;;;;;;5012781;28;20022;-51
2021/05/03 03:13:30;;;;;;;0.60;0.60;;;23.20;27.40;;;;;;5012953;28;20026;-55
2021/05/03 03:15:56;;;;;;;0.50;0.45;;;23.30;27.40;;;;;;5012518;28;20033;-55
2021/05/03 03:18:22;;;;;;;1.10;0.52;;;23.20;27.40;;;;;;5012422;28;20021;-57
2021/05/03 03:20:48;;;;;;;0.50;0.40;;;23.20;27.40;;;;;;5014444;28;20457;-58
2021/05/03 03:23:14;;;;;;;1.23;0.55;;;23.20;27.40;;;;;;5013916;28;20117;-56
2021/05/03 03:25:40;;;;;;;0.65;0.40;;;23.20;27.40;;;;;;5014248;28;20037;-56
2021/05/03 03:28:07;;;;;;;0.82;0.40;;;23.20;27.50;;;;;;5013414;28;20465;-52
2021/05/03 03:30:33;;;;;;;0.70;0.45;;;23.20;27.40;;;;;;5014476;28;20427;-56
2021/05/03 03:32:59;;;;;;;0.52;0.52;;;23.20;27.40;;;;;;5013577;28;20114;-56
2021/05/03 03:35:28;;;;;;;0.70;0.47;;;23.20;27.40;;;;;;5013123;28;20105;-53
2021/05/03 03:37:54;;;;;;;0.40;0.40;;;23.20;27.40;;;;;;4995727;28;20176;-51
2021/05/03 03:40:20;;;;;;;0.80;0.50;;;23.20;27.40;;;;;;5013252;28;20455;-53
2021/05/03 03:42:46;;;;;;;0.95;0.40;;;23.20;27.40;;;;;;5013710;28;20354;-59
2021/05/03 03:45:14;;;;;;;0.60;0.45;;;23.20;27.40;;;;;;5012653;28;20030;-51
2021/05/03 03:47:41;;;;;;;0.32;0.32;;;23.20;27.40;;;;;;5013738;28;20065;-54
2021/05/03 03:50:07;;;;;;;0.40;0.40;;;23.10;27.40;;;;;;5013871;28;20038;-57
2021/05/03 03:52:34;;;;;;;0.47;0.47;;;23.10;27.40;;;;;;5013954;28;20037;-57
2021/05/03 03:55:00;;;;;;;1.17;0.68;;;23.10;27.40;;;;;;5013119;28;20030;-53
2021/05/03 03:57:25;;;;;;;0.70;0.55;;;23.10;27.40;;;;;;5013748;28;20331;-57
2021/05/03 03:59:55;;;;;;;0.85;0.63;;;23.10;27.40;;;;;;5012911;28;20121;-52
2021/05/03 04:02:21;;;;;;;0.55;0.40;;;23.10;27.40;;;;;;5014044;28;20390;-56
2021/05/03 04:05:06;;;;;;;0.95;0.52;;;23.10;27.40;;;;;;5011598;28;20034;-57
2021/05/03 04:07:40;;;;;;;0.77;0.60;;;23.10;27.40;;;;;;5007314;28;20053;-48
2021/05/03 04:10:20;;;;;;;0.57;0.57;;;23.10;27.40;;;;;;5013607;28;20026;-52
2021/05/03 04:13:17;;;;;;;0.88;0.45;;;23.10;27.40;;;;;;5009502;28;20030;-52
2021/05/03 04:26:33;;;;;;;0.55;0.55;;;23.00;27.40;;;;;;5008908;28;20045;-56
2021/05/03 04:28:59;;;;;;;0.75;0.45;;;23.00;27.40;;;;;;5014750;28;20141;-57
2021/05/03 04:31:25;;;;;;;0.95;0.70;;;23.00;27.40;;;;;;5016730;28;20041;-55
2021/05/03 04:33:51;;;;;;;0.93;0.63;;;23.00;27.40;;;;;;5017689;28;20034;-55
2021/05/03 04:36:18;;;;;;;0.50;0.50;;;23.00;27.40;;;;;;5016846;28;20065;-54
2021/05/03 04:38:44;;;;;;;0.63;0.50;;;23.00;27.40;;;;;;5011496;28;20030;-50
2021/05/03 04:41:11;;;;;;;0.60;0.60;;;23.00;27.40;;;;;;5017526;28;20040;-53
2021/05/03 04:43:37;;;;;;;1.33;0.50;;;23.00;27.40;;;;;;5018265;28;20026;-50
2021/05/03 04:46:03;;;;;;;1.20;0.52;;;23.00;27.40;;;;;;5017711;28;20045;-48
2021/05/03 04:48:29;;;;;;;1.25;0.60;;;23.00;27.40;;;;;;5017916;28;20123;-51
2021/05/03 04:50:55;;;;;;;0.93;0.50;;;23.00;27.40;;;;;;5016990;28;20042;-57
2021/05/03 04:53:22;;;;;;;0.80;0.60;;;23.00;27.40;;;;;;5017298;28;20473;-55
2021/05/03 04:55:47;;;;;;;0.73;0.63;;;23.00;27.40;;;;;;5016704;28;20445;-57
2021/05/03 04:58:14;;;;;;;0.57;0.55;;;23.00;27.40;;;;;;5016634;28;20042;-54
2021/05/03 05:00:40;;;;;;;1.00;0.60;;;23.00;27.40;;;;;;5015961;28;20030;-55
2021/05/03 05:03:06;;;;;;;1.27;0.88;;;22.90;27.40;;;;;;5016500;28;20041;-56
2021/05/03 05:05:32;;;;;;;1.00;0.60;;;22.90;27.30;;;;;;5011948;28;20049;-58
2021/05/03 05:07:58;;;;;;;0.88;0.60;;;22.90;27.40;;;;;;5002417;28;20084;-57
2021/05/03 05:10:24;;;;;;;0.80;0.60;;;22.90;27.30;;;;;;5017335;28;20393;-57
2021/05/03 05:12:51;;;;;;;0.90;0.50;;;22.90;27.40;;;;;;5015845;28;20104;-60
2021/05/03 05:15:17;;;;;;;1.38;0.68;;;22.90;27.90;;;;;;5016231;28;20092;-57
2021/05/03 05:17:43;;;;;;;0.70;0.40;;;22.90;27.40;;;;;;5015625;28;20033;-55
2021/05/03 05:20:10;;;;;;;1.63;0.80;;;22.90;27.40;;;;;;5016090;28;20844;-53
2021/05/03 05:22:37;;;;;;;0.82;0.70;;;22.90;27.40;;;;;;5016173;28;20293;-56
2021/05/03 05:25:05;;;;;;;0.70;0.50;;;22.90;27.40;;;;;;5016566;28;20442;-56
2021/05/03 05:27:31;;;;;;;1.13;0.60;;;22.90;27.40;;;;;;5016899;28;20056;-56
2021/05/03 05:29:57;;;;;;;0.68;0.57;;;22.90;27.40;;;;;;5016046;28;20463;-55
2021/05/03 05:32:22;;;;;;;1.08;0.73;;;22.90;27.40;;;;;;5015616;28;20037;-54
2021/05/03 05:34:48;;;;;;;1.30;0.65;;;22.90;27.40;;;;;;5017188;28;20128;-52
2021/05/03 05:37:14;;;;;;;1.00;0.60;;;22.90;27.40;;;;;;5015712;28;20037;-55
2021/05/03 05:39:40;;;;;;;1.35;0.68;;;22.90;27.30;;;;;;5016738;28;20080;-55
2021/05/03 05:42:06;;;;;;;0.95;0.70;;;22.90;27.30;;;;;;5014204;28;20041;-55
2021/05/03 05:44:33;;;;;;;1.10;0.70;;;22.90;27.30;;;;;;5016390;28;20191;-52
2021/05/03 05:46:58;;;;;;;0.85;0.63;;;22.90;27.30;;;;;;5014708;28;20037;-55
2021/05/03 05:49:26;;;;;;;0.63;0.52;;;22.90;27.30;;;;;;5015028;28;20026;-57
2021/05/03 05:51:52;;;;;;;1.25;0.77;;;22.90;27.30;;;;;;5016395;28;20113;-58
2021/05/03 05:54:18;;;;;;;0.93;0.70;;;22.80;27.30;;;;;;5015424;28;20046;-55
2021/05/03 05:56:44;;;;;;;1.00;0.70;;;22.80;27.20;;;;;;5012323;28;20061;-58
2021/05/03 05:59:10;;;;;;;0.80;0.60;;;22.90;27.30;;;;;;5015224;28;20145;-56
2021/05/03 06:01:36;;;;;;;1.20;0.75;;;22.80;27.20;;;;;;5015928;28;20095;-52
2021/05/03 06:04:02;;;;;;;0.80;0.50;;;22.80;27.20;;;;;;5015772;28;20034;-55
2021/05/03 06:06:28;;;;;;;0.63;0.43;;;22.80;27.30;;;;;;5015803;28;20048;-55
2021/05/03 06:08:53;;;;;;;0.93;0.70;;;22.80;27.30;;;;;;5015939;28;20034;-55
2021/05/03 06:11:19;;;;;;;0.90;0.70;;;22.80;27.20;;;;;;5014476;28;20030;-55
2021/05/03 06:13:45;;;;;;;0.70;0.60;;;22.80;27.20;;;;;;5016013;28;20044;-54
2021/05/03 06:16:11;;;;;;;1.25;0.60;;;22.80;27.20;;;;;;5014245;28;20449;-54
2021/05/03 06:18:37;;;;;;;1.15;0.63;;;22.80;27.20;;;;;;5016180;28;20426;-54
2021/05/03 06:21:03;;;;;;;0.75;0.70;;;22.80;27.20;;;;;;5013822;28;20044;-56
2021/05/03 06:23:28;;;;;;;1.13;0.57;;;22.80;27.20;;;;;;5015571;28;20045;-54
2021/05/03 06:25:54;;;;;;;1.05;0.60;;;22.80;27.20;;;;;;5014048;28;20334;-55
2021/05/03 06:28:21;;;;;;;1.48;0.70;;;22.80;27.20;;;;;;5015286;28;20029;-51
2021/05/03 06:30:53;;;;;;;1.90;0.65;;;22.80;27.20;;;;;;5014226;28;20030;-57
2021/05/03 06:33:19;;;;;;;0.90;0.60;;;22.80;27.20;;;;;;4997248;28;20295;-57
2021/05/03 06:35:45;;;;;;;1.05;0.65;;;22.80;27.20;;;;;;5005976;28;20099;-58
2021/05/03 06:38:10;;;;;;;1.50;0.75;;;22.80;27.20;;;;;;5015442;28;20099;-53
2021/05/03 06:40:36;;;;;;;1.83;0.85;;;22.80;27.20;;;;;;5014510;28;20034;-54
2021/05/03 06:43:02;;;;;;;0.95;0.68;;;22.80;27.20;;;;;;5014132;28;20032;-53
2021/05/03 06:45:32;;;;;;;1.23;0.70;;;22.80;27.10;;;;;;5014194;28;20040;-53
2021/05/03 06:47:59;;;;;;;1.67;0.77;;;22.80;27.10;;;;;;5014527;28;20034;-55
2021/05/03 06:50:25;;;;;;;1.40;0.70;;;22.80;27.60;;;;;;5014464;28;20026;-52
2021/05/03 06:52:51;;;;;;;2.35;1.02;;;22.80;27.10;;;;;;5014715;28;20041;-54
2021/05/03 06:55:17;;;;;;;1.33;0.80;;;22.80;27.10;;;;;;5014826;28;20492;-55
2021/05/03 06:57:43;;;;;;;3.20;0.70;;;22.80;27.10;;;;;;5014500;28;20053;-54
2021/05/03 07:00:11;;;;;;;1.63;0.77;;;22.80;27.10;;;;;;5015088;28;20096;-55
2021/05/03 07:02:39;;;;;;;1.55;0.90;;;22.80;27.10;;;;;;5005446;28;20072;-53
2021/05/03 07:05:06;;;;;;;2.67;1.27;;;22.80;27.00;;;;;;5005009;28;20041;-56
2021/05/03 07:07:32;;;;;;;1.85;0.88;;;22.80;27.00;;;;;;5014068;28;20088;-55
2021/05/03 07:09:58;;;;;;;1.00;0.65;;;22.80;27.00;;;;;;5010202;28;20353;-58
2021/05/03 07:12:25;;;;;;;1.83;0.82;;;22.80;27.00;;;;;;5013992;28;20152;-58
2021/05/03 07:14:51;;;;;;;2.70;0.95;;;22.80;27.00;;;;;;5013916;28;20033;-56
2021/05/03 07:17:17;;;;;;;1.27;0.85;;;22.80;27.00;;;;;;5018424;28;20062;-57
2021/05/03 07:19:43;;;;;;;2.88;0.90;;;22.80;26.90;;;;;;5014704;28;20026;-57
2021/05/03 07:22:10;;;;;;;1.42;0.70;;;22.80;26.90;;;;;;5010894;28;20509;-56
2021/05/03 07:24:52;;;;;;;1.45;0.68;;;22.80;26.90;;;;;;5012807;28;20033;-59
2021/05/03 07:27:23;;;;;;;1.77;0.80;;;22.80;26.90;;;;;;5005230;28;20073;-57
2021/05/03 07:29:50;;;;;;;1.00;0.70;;;22.80;26.90;;;;;;5012435;28;20424;-56
2021/05/03 07:32:16;;;;;;;1.38;0.70;;;22.80;26.90;;;;;;5014094;28;20087;-54
2021/05/03 07:34:42;;;;;;;1.88;0.75;;;22.80;27.20;;;;;;5013945;28;20540;-57
2021/05/03 07:37:08;;;;;;;1.30;0.65;;;22.80;26.90;;;;;;5014058;28;20037;-51
2021/05/03 07:39:34;;;;;;;1.52;0.68;;;22.70;26.90;;;;;;5011796;28;20372;-52
2021/05/03 07:42:00;;;;;;;1.88;0.90;;;22.80;26.90;;;;;;5011191;28;20520;-57
2021/05/03 07:44:26;;;;;;;1.73;0.88;;;22.80;26.90;;;;;;5012946;28;20121;-57
2021/05/03 07:46:53;;;;;;;1.60;0.90;;;22.70;26.90;;;;;;5010426;28;20419;-55
2021/05/03 07:49:19;;;;;;;2.30;0.82;;;22.70;26.90;;;;;;5011832;28;20026;-54
2021/05/03 07:51:45;;;;;;;1.08;0.70;;;22.70;26.90;;;;;;5011808;28;20026;-52
2021/05/03 07:54:11;;;;;;;1.63;0.77;;;22.70;27.00;;;;;;5015354;28;20421;-52
2021/05/03 07:56:37;;;;;;;1.40;1.10;;;22.60;26.90;;;;;;5011050;28;20476;-54
2021/05/03 07:59:03;;;;;;;1.42;1.00;;;22.60;27.00;;;;;;5011530;28;20030;-55
2021/05/03 08:01:29;;;;;;;0.77;0.70;;;22.60;27.00;;;;;;5011065;28;20691;-54
2021/05/03 08:03:55;;;;;;;1.02;0.55;;;22.60;27.00;;;;;;5010326;28;20112;-53
2021/05/03 08:06:21;;;;;;;0.77;0.60;;;22.50;27.00;;;;;;5009862;28;20029;-49
2021/05/03 08:08:47;;;;;;;1.52;0.90;;;22.50;27.10;;;;;;5013961;28;20045;-57
2021/05/03 08:11:15;;;;;;;1.50;1.20;;;22.50;27.10;;;;;;5010166;28;20033;-57
2021/05/03 08:13:43;;;;;;;1.40;0.70;;;22.50;27.20;;;;;;5012649;28;20034;-56
2021/05/03 08:16:14;;;;;;;1.75;0.82;;;22.50;27.20;;;;;;5012559;28;20029;-57
2021/05/03 08:18:40;;;;;;;2.58;0.90;;;22.50;27.30;;;;;;5011484;28;20030;-57
2021/05/03 08:21:07;;;;;;;3.15;1.10;;;22.50;27.30;;;;;;5012353;28;20021;-58
2021/05/03 08:23:33;;;;;;;2.08;0.98;;;22.50;27.40;;;;;;5011454;28;20149;-53
2021/05/03 08:25:59;;;;;;;1.10;0.73;;;22.50;27.40;;;;;;5010906;28;20482;-54
2021/05/03 08:28:25;;;;;;;1.08;0.80;;;22.50;27.90;;;;;;5012056;28;20101;-60
2021/05/03 08:30:52;;;;;;;1.98;0.88;;;22.50;27.40;;;;;;5011528;28;20069;-56
2021/05/03 08:33:19;;;;;;;1.15;0.73;;;22.50;27.50;;;;;;5010158;28;20400;-60
2021/05/03 08:35:46;;;;;;;1.55;0.98;;;22.40;27.40;;;;;;5013424;28;20026;-54
2021/05/03 08:38:13;;;;;;;3.80;1.20;;;22.40;27.50;;;;;;5011661;28;20026;-56
2021/05/03 08:40:40;;;;;;;3.35;2.08;;;22.40;27.70;;;;;;5009573;28;20121;-49
2021/05/03 08:43:07;;;;;;;5.68;3.50;;;22.40;28.10;;;;;;5011848;28;20025;-50
2021/05/03 08:45:34;;;;;;;5.80;3.40;;;22.50;29.00;;;;;;5010720;28;20049;-53
2021/05/03 08:53:16;;;;;;;11.80;6.80;;;22.60;32.40;;;;;;5003266;28;20046;-52
2021/05/03 08:55:42;;;;;;;8.20;5.47;;;22.60;33.20;;;;;;5011086;28;20041;-57
2021/05/03 08:58:09;;;;;;;8.70;5.53;;;22.70;33.70;;;;;;5011463;28;20077;-54
2021/05/03 09:00:38;;;;;;;8.40;4.85;;;22.70;33.60;;;;;;5013758;28;20041;-51
2021/05/03 09:03:11;;;;;;;5.40;3.88;;;22.70;33.40;;;;;;5013522;28;20030;-54
2021/05/03 09:05:38;;;;;;;5.55;3.55;;;22.70;33.10;;;;;;5013471;28;20394;-53
2021/05/03 09:08:05;;;;;;;4.63;3.60;;;22.70;32.90;;;;;;5012966;28;20045;-52
2021/05/03 09:10:31;;;;;;;5.32;3.25;;;22.70;32.50;;;;;;5013769;28;20088;-53
2021/05/03 09:13:08;;;;;;;5.47;2.95;;;22.70;32.20;;;;;;5011613;28;20026;-51
2021/05/03 09:15:34;;;;;;;4.97;3.03;;;22.70;31.90;;;;;;5013230;28;20063;-52
2021/05/03 09:18:00;;;;;;;5.18;2.22;;;22.70;31.70;;;;;;5022128;28;20033;-58
2021/05/03 09:20:26;;;;;;;5.63;3.60;;;22.70;31.40;;;;;;5017112;28;20096;-56
2021/05/03 09:23:08;;;;;;;5.75;4.50;;;22.70;31.30;;;;;;5015453;28;20061;-60
2021/05/03 09:25:41;;;;;;;6.78;5.10;;;22.70;31.90;;;;;;5016198;28;20033;-57
2021/05/03 09:28:14;;;;;;;9.80;5.57;;;22.80;32.40;;;;;;5015223;28;20064;-57
2021/05/03 09:31:09;;;;;;;6.55;4.90;;;22.80;32.90;;;;;;5013074;28;20034;-49
2021/05/03 09:33:38;;;;;;;7.15;4.93;;;22.90;33.20;;;;;;4997687;28;20055;-50
2021/05/03 09:36:09;;;;;;;6.60;4.68;;;22.90;33.00;;;;;;5016652;28;20038;-50
2021/05/03 09:38:55;;;;;;;8.63;5.88;;;22.90;33.00;;;;;;5016504;28;20026;-56
2021/05/03 09:41:27;;;;;;;13.23;6.93;;;22.90;33.60;;;;;;5016301;28;20046;-59
2021/05/03 09:44:08;;;;;;;11.82;6.47;;;22.90;35.00;;;;;;5011286;28;20095;-55
2021/05/03 09:46:43;;;;;;;12.23;6.93;;;23.00;36.70;;;;;;5015938;28;20133;-54
2021/05/03 09:49:16;;;;;;;12.65;7.07;;;23.10;37.60;;;;;;5017263;28;20105;-54
2021/05/03 09:51:44;;;;;;;12.55;7.00;;;23.10;37.90;;;;;;5015616;28;20109;-49
2021/05/03 09:54:16;;;;;;;9.80;6.00;;;23.10;38.10;;;;;;5015739;28;20105;-49
2021/05/03 09:57:05;;;;;;;9.18;5.50;;;23.20;38.00;;;;;;5015686;28;20056;-53
2021/05/03 09:59:40;;;;;;;8.68;4.82;;;23.20;37.40;;;;;;5013511;28;20445;-51
2021/05/03 10:02:22;;;;;;;8.68;5.32;;;23.20;36.90;;;;;;5016267;28;20030;-51
2021/05/03 10:07:55;;;;;;;9.98;5.38;;;23.20;37.60;;;;;;5001945;28;20108;-55
2021/05/03 10:10:23;;;;;;;8.70;4.38;;;23.20;37.60;;;;;;5014495;28;20053;-56
2021/05/03 10:12:51;;;;;;;7.43;4.45;;;23.30;37.40;;;;;;5014099;28;20034;-54
2021/05/03 10:15:18;;;;;;;6.28;3.83;;;23.30;37.00;;;;;;5015556;28;20125;-59
2021/05/03 10:17:45;;;;;;;4.60;3.00;;;23.20;36.40;;;;;;5016179;28;20026;-59
2021/05/03 10:20:13;;;;;;;3.65;2.55;;;23.20;35.80;;;;;;5016365;28;20125;-62
2021/05/03 10:22:40;;;;;;;3.25;2.15;;;23.20;35.10;;;;;;5016095;28;20053;-59
2021/05/03 10:25:17;;;;;;;4.18;2.13;;;23.20;34.50;;;;;;5015284;28;20040;-61
2021/05/03 10:27:50;;;;;;;3.13;2.10;;;23.20;34.00;;;;;;5012495;28;20034;-54
2021/05/03 10:30:21;;;;;;;3.67;1.83;;;23.20;33.60;;;;;;5020958;28;20036;-51
2021/05/03 10:33:04;;;;;;;2.95;1.88;;;23.20;33.20;;;;;;5015295;28;20280;-57
2021/05/03 10:35:32;;;;;;;2.50;1.60;;;23.20;32.70;;;;;;5011866;28;20030;-58
2021/05/03 10:37:58;;;;;;;1.42;1.13;;;23.20;32.40;;;;;;5012724;28;20120;-59
2021/05/03 10:40:25;;;;;;;2.50;1.20;;;23.20;32.10;;;;;;5013623;28;20346;-53
2021/05/03 10:43:03;;;;;;;1.90;1.05;;;23.30;32.50;;;;;;5008444;28;20054;-56
2021/05/03 10:48:28;;;;;;;1.67;0.93;;;23.40;31.20;;;;;;5013411;28;20523;-53
2021/05/03 10:50:54;;;;;;;1.55;0.95;;;23.40;31.00;;;;;;5013361;28;20124;-58
2021/05/03 10:55:56;;;;;;;;;;;23.50;30.70;;;;;;5013264;28;20033;-53
2021/05/03 10:58:22;;;;;;;1.02;0.80;;;23.50;30.60;;;;;;5011195;28;19929;-57
2021/05/03 11:01:05;;;;;;;1.23;0.80;;;23.50;30.40;;;;;;5012934;28;20363;-53
2021/05/03 11:03:56;;;;;;;0.70;0.68;;;23.60;30.10;;;;;;5011552;28;20176;-58
2021/05/03 11:06:37;;;;;;;1.20;0.80;;;23.60;30.00;;;;;;5010588;28;20018;-52
2021/05/03 11:09:25;;;;;;;1.48;0.80;;;23.60;29.90;;;;;;5009109;28;20053;-60
2021/05/03 11:11:51;;;;;;;1.13;0.93;;;23.70;29.90;;;;;;5012429;28;20026;-57
2021/05/03 11:14:20;;;;;;;2.15;1.10;;;23.70;29.80;;;;;;5012491;28;20028;-59
2021/05/03 11:16:54;;;;;;;2.20;0.73;;;23.70;29.80;;;;;;5011894;28;20033;-56
2021/05/03 11:19:39;;;;;;;1.30;0.73;;;23.80;29.70;;;;;;5010957;28;20122;-49
2021/05/03 11:22:08;;;;;;;1.20;0.70;;;23.80;29.60;;;;;;5011738;28;20038;-58
2021/05/03 11:24:43;;;;;;;1.33;0.90;;;23.80;30.00;;;;;;5011352;28;20030;-55
2021/05/03 11:27:27;;;;;;;0.90;0.77;;;23.80;29.40;;;;;;5009686;28;20037;-51
2021/05/03 11:30:08;;;;;;;2.45;1.02;;;23.90;29.30;;;;;;5010123;28;20049;-53
2021/05/03 11:32:37;;;;;;;1.10;0.70;;;23.80;29.10;;;;;;5011073;28;20353;-52
2021/05/03 11:35:17;;;;;;;1.85;0.90;;;23.80;29.00;;;;;;5010502;28;20030;-53
2021/05/03 11:40:46;;;;;;;1.50;0.70;;;23.80;28.60;;;;;;5011009;28;20030;-49
2021/05/03 11:43:50;;;;;;;1.10;0.70;;;23.80;28.50;;;;;;5011661;28;20084;-51
2021/05/03 11:46:37;;;;;;;0.52;0.52;;;23.80;28.30;;;;;;5012466;28;20083;-56
2021/05/03 11:49:11;;;;;;;0.95;0.50;;;23.80;28.20;;;;;;5012584;28;20041;-54
2021/05/03 11:51:44;;;;;;;0.57;0.57;;;23.80;28.10;;;;;;5009540;28;20021;-51
2021/05/03 11:54:23;;;;;;;0.50;0.50;;;23.80;28.00;;;;;;5012223;28;20129;-60
2021/05/03 11:57:09;;;;;;;1.65;0.70;;;23.80;27.80;;;;;;5010234;28;20049;-61
2021/05/03 11:59:36;;;;;;;0.43;0.35;;;23.80;27.80;;;;;;5009364;28;20081;-56
2021/05/03 12:02:06;;;;;;;1.02;0.45;;;23.80;28.30;;;;;;5011294;28;20030;-55
2021/05/03 12:04:38;;;;;;;0.57;0.52;;;23.80;27.70;;;;;;5012976;28;20026;-57
2021/05/03 12:07:19;;;;;;;0.70;0.50;;;23.90;27.70;;;;;;5008125;28;20331;-58
2021/05/03 12:09:46;;;;;;;0.90;0.63;;;23.80;27.60;;;;;;5012574;28;20037;-59
2021/05/03 12:12:14;;;;;;;0.75;0.55;;;23.80;27.60;;;;;;5013706;28;20029;-57
2021/05/03 12:14:48;;;;;;;0.68;0.60;;;23.80;27.50;;;;;;5014124;28;20338;-53
2021/05/03 12:17:23;;;;;;;1.15;0.40;;;23.80;27.50;;;;;;5013279;28;20323;-58
2021/05/03 12:19:57;;;;;;;0.50;0.40;;;23.90;27.40;;;;;;5013552;28;20450;-58
2021/05/03 12:22:24;;;;;;;1.15;0.65;;;23.80;27.20;;;;;;5010430;28;20084;-53
2021/05/03 12:24:51;;;;;;;0.70;0.60;;;23.80;27.20;;;;;;5013652;28;20113;-57
2021/05/03 12:27:17;;;;;;;0.90;0.57;;;23.80;27.20;;;;;;5012681;28;20291;-59
2021/05/03 12:29:45;;;;;;;0.65;0.52;;;23.80;27.20;;;;;;5013697;28;20241;-61
2021/05/03 12:32:19;;;;;;;0.98;0.70;;;23.80;27.10;;;;;;5011993;28;20030;-56
2021/05/03 12:34:50;;;;;;;0.70;0.70;;;23.80;27.00;;;;;;5012601;28;20044;-52
2021/05/03 12:37:20;;;;;;;0.90;0.70;;;23.90;27.10;;;;;;5011290;28;20045;-54
2021/05/03 12:40:06;;;;;;;0.70;0.55;;;23.80;27.00;;;;;;5012459;28;20050;-51
2021/05/03 12:42:54;;;;;;;1.00;0.80;;;23.90;26.90;;;;;;4994357;28;20062;-52
2021/05/03 12:45:40;;;;;;;1.52;0.70;;;23.90;26.80;;;;;;5005668;28;20038;-56
2021/05/03 12:50:55;;;;;;;0.82;0.70;;;23.80;26.80;;;;;;5014017;28;20358;-53
2021/05/03 12:58:37;;;;;;;1.13;0.75;;;23.80;26.70;;;;;;5012878;28;20049;-53
2021/05/03 13:09:27;;;;;;;1.58;0.98;;;23.80;26.60;;;;;;5014550;28;20069;-56
2021/05/03 13:29:03;;;;;;;1.60;1.25;;;23.90;26.40;;;;;;5015494;28;20088;-56
2021/05/03 13:31:31;;;;;;;2.30;1.75;;;23.90;26.50;;;;;;5016776;28;20041;-53
2021/05/03 13:33:59;;;;;;;1.98;1.60;;;23.90;26.50;;;;;;5014303;28;20441;-56
2021/05/03 13:36:26;;;;;;;2.20;1.73;;;23.90;26.50;;;;;;5015320;28;20103;-56
2021/05/03 13:38:52;;;;;;;2.88;2.17;;;23.90;26.60;;;;;;5012646;28;20405;-54
2021/05/03 13:41:19;;;;;;;3.92;2.53;;;23.90;26.60;;;;;;5014052;28;20472;-56
2021/05/03 13:43:44;;;;;;;3.22;2.63;;;24.00;26.70;;;;;;5014864;28;20026;-60
2021/05/03 13:46:11;;;;;;;3.70;2.97;;;24.00;26.80;;;;;;5014723;28;20452;-50
2021/05/03 13:48:36;;;;;;;3.63;2.95;;;24.00;26.80;;;;;;5012958;28;20465;-59
2021/05/03 13:51:07;;;;;;;3.75;2.88;;;24.10;26.90;;;;;;5014884;28;20025;-59
2021/05/03 13:53:34;;;;;;;5.40;3.88;;;24.10;26.90;;;;;;5014837;28;20026;-54
2021/05/03 13:56:00;;;;;;;4.53;3.60;;;24.10;27.00;;;;;;5013939;28;20506;-54